sensor_id;sensor_type;location;lat;lon;timestamp;pressure;altitude;pressure_sealevel;temperature;humidity
55914;BME280;58179;48.776;9.124;2023-03-01T00:01:26;98063.41;;;-2.42;100.00
55914;BME280;58179;48.776;9.124;2023-03-01T00:03:53;98063.25;;;-2.41;100.00
55914;BME280;58179;48.776;9.124;2023-03-01T00:06:20;98068.75;;;-2.44;100.00
55914;BME280;58179;48.776;9.124;2023-03-01T00:08:48;98071.31;;;-2.44;100.00
55914;BME280;58179;48.776;9.124;2023-03-01T00:11:17;98066.44;;;-2.47;100.00
55914;BME280;58179;48.776;9.124;2023-03-01T00:13:45;98066.16;;;-2.44;100.00
55914;BME280;58179;48.776;9.124;2023-03-01T00:16:14;98068.06;;;-2.46;100.00
55914;BME280;58179;48.776;9.124;2023-03-01T00:18:40;98064.50;;;-2.45;100.00
55914;BME280;58179;48.776;9.124;2023-03-01T00:21:06;98070.75;;;-2.55;100.00
55914;BME280;58179;48.776;9.124;2023-03-01T00:23:34;98067.81;;;-2.60;100.00
55914;BME280;58179;48.776;9.124;2023-03-01T00:26:05;98079.44;;;-2.64;100.00
55914;BME280;58179;48.776;9.124;2023-03-01T00:28:32;98077.88;;;-2.57;100.00
55914;BME280;58179;48.776;9.124;2023-03-01T00:31:03;98078.84;;;-2.58;100.00
55914;BME280;58179;48.776;9.124;2023-03-01T00:33:29;98078.09;;;-2.68;100.00
55914;BME280;58179;48.776;9.124;2023-03-01T00:35:58;98069.09;;;-2.64;100.00
55914;BME280;58179;48.776;9.124;2023-03-01T00:38:24;98080.84;;;-2.70;100.00
55914;BME280;58179;48.776;9.124;2023-03-01T00:40:49;98069.16;;;-2.74;100.00
55914;BME280;58179;48.776;9.124;2023-03-01T00:43:17;98073.88;;;-2.69;100.00
55914;BME280;58179;48.776;9.124;2023-03-01T00:45:43;98074.63;;;-2.77;100.00
55914;BME280;58179;48.776;9.124;2023-03-01T00:48:09;98068.28;;;-2.83;100.00
55914;BME280;58179;48.776;9.124;2023-03-01T00:50:35;98059.03;;;-2.85;100.00
55914;BME280;58179;48.776;9.124;2023-03-01T00:53:01;98057.94;;;-2.83;100.00
55914;BME280;58179;48.776;9.124;2023-03-01T00:55:27;98066.31;;;-2.89;100.00
55914;BME280;58179;48.776;9.124;2023-03-01T00:57:52;98059.63;;;-2.91;100.00
55914;BME280;58179;48.776;9.124;2023-03-01T01:00:21;98057.38;;;-2.94;100.00
55914;BME280;58179;48.776;9.124;2023-03-01T01:02:47;98063.19;;;-2.92;100.00
55914;BME280;58179;48.776;9.124;2023-03-01T01:05:13;98059.13;;;-2.95;100.00
55914;BME280;58179;48.776;9.124;2023-03-01T01:07:39;98059.44;;;-2.98;100.00
55914;BME280;58179;48.776;9.124;2023-03-01T01:10:06;98058.59;;;-2.98;100.00
55914;BME280;58179;48.776;9.124;2023-03-01T01:12:33;98054.56;;;-3.01;100.00
55914;BME280;58179;48.776;9.124;2023-03-01T01:14:59;98058.25;;;-3.03;100.00
55914;BME280;58179;48.776;9.124;2023-03-01T01:17:26;98057.16;;;-3.01;100.00
55914;BME280;58179;48.776;9.124;2023-03-01T01:19:52;98052.41;;;-3.05;100.00
55914;BME280;58179;48.776;9.124;2023-03-01T01:22:18;98055.13;;;-3.07;100.00
55914;BME280;58179;48.776;9.124;2023-03-01T01:24:44;98060.47;;;-3.08;100.00
55914;BME280;58179;48.776;9.124;2023-03-01T01:27:09;98053.50;;;-3.08;100.00
55914;BME280;58179;48.776;9.124;2023-03-01T01:29:35;98057.06;;;-3.09;100.00
55914;BME280;58179;48.776;9.124;2023-03-01T01:32:02;98043.81;;;-3.06;100.00
55914;BME280;58179;48.776;9.124;2023-03-01T01:34:29;98039.59;;;-3.07;100.00
55914;BME280;58179;48.776;9.124;2023-03-01T01:36:55;98040.06;;;-3.12;100.00
55914;BME280;58179;48.776;9.124;2023-03-01T01:39:21;98043.31;;;-3.09;100.00
55914;BME280;58179;48.776;9.124;2023-03-01T01:41:47;98036.38;;;-3.09;100.00
55914;BME280;58179;48.776;9.124;2023-03-01T01:44:18;98039.25;;;-3.12;100.00
55914;BME280;58179;48.776;9.124;2023-03-01T01:46:47;98029.84;;;-3.13;100.00
55914;BME280;58179;48.776;9.124;2023-03-01T01:49:27;98030.66;;;-3.13;100.00
55914;BME280;58179;48.776;9.124;2023-03-01T01:52:02;98031.13;;;-3.17;100.00
55914;BME280;58179;48.776;9.124;2023-03-01T01:54:38;98025.41;;;-3.21;100.00
55914;BME280;58179;48.776;9.124;2023-03-01T01:57:11;98031.53;;;-3.22;100.00
55914;BME280;58179;48.776;9.124;2023-03-01T01:59:39;98027.41;;;-3.15;100.00
55914;BME280;58179;48.776;9.124;2023-03-01T02:02:06;98022.22;;;-3.15;100.00
55914;BME280;58179;48.776;9.124;2023-03-01T02:04:32;98018.00;;;-3.16;100.00
55914;BME280;58179;48.776;9.124;2023-03-01T02:07:05;98022.94;;;-3.04;100.00
55914;BME280;58179;48.776;9.124;2023-03-01T02:09:33;98021.91;;;-2.94;100.00
55914;BME280;58179;48.776;9.124;2023-03-01T02:12:00;98012.41;;;-2.85;100.00
55914;BME280;58179;48.776;9.124;2023-03-01T02:14:26;98012.03;;;-2.72;100.00
55914;BME280;58179;48.776;9.124;2023-03-01T02:16:52;98006.22;;;-2.66;100.00
55914;BME280;58179;48.776;9.124;2023-03-01T02:19:30;98000.13;;;-2.57;100.00
55914;BME280;58179;48.776;9.124;2023-03-01T02:22:07;97998.22;;;-2.47;100.00
55914;BME280;58179;48.776;9.124;2023-03-01T02:24:45;97993.91;;;-2.39;100.00
55914;BME280;58179;48.776;9.124;2023-03-01T02:27:15;98000.25;;;-2.33;100.00
55914;BME280;58179;48.776;9.124;2023-03-01T02:29:44;97988.63;;;-2.29;100.00
55914;BME280;58179;48.776;9.124;2023-03-01T02:32:11;97986.50;;;-2.25;100.00
55914;BME280;58179;48.776;9.124;2023-03-01T02:34:39;97982.81;;;-2.23;100.00
55914;BME280;58179;48.776;9.124;2023-03-01T02:37:10;97980.53;;;-2.18;100.00
55914;BME280;58179;48.776;9.124;2023-03-01T02:39:41;97974.75;;;-2.12;100.00
55914;BME280;58179;48.776;9.124;2023-03-01T02:42:11;97970.41;;;-2.03;100.00
55914;BME280;58179;48.776;9.124;2023-03-01T02:44:38;97973.50;;;-2.00;100.00
55914;BME280;58179;48.776;9.124;2023-03-01T02:47:05;97968.47;;;-1.93;100.00
55914;BME280;58179;48.776;9.124;2023-03-01T02:49:34;97969.81;;;-1.89;100.00
55914;BME280;58179;48.776;9.124;2023-03-01T02:52:28;97973.53;;;-1.83;100.00
55914;BME280;58179;48.776;9.124;2023-03-01T02:55:03;97957.63;;;-1.80;100.00
55914;BME280;58179;48.776;9.124;2023-03-01T02:57:34;97967.56;;;-1.76;100.00
55914;BME280;58179;48.776;9.124;2023-03-01T03:00:05;97956.69;;;-1.71;100.00
55914;BME280;58179;48.776;9.124;2023-03-01T03:02:35;97956.38;;;-1.68;100.00
55914;BME280;58179;48.776;9.124;2023-03-01T03:05:04;97958.47;;;-1.64;100.00
55914;BME280;58179;48.776;9.124;2023-03-01T03:07:32;97952.97;;;-1.61;100.00
55914;BME280;58179;48.776;9.124;2023-03-01T03:09:59;97951.84;;;-1.58;100.00
55914;BME280;58179;48.776;9.124;2023-03-01T03:12:25;97956.72;;;-1.55;100.00
55914;BME280;58179;48.776;9.124;2023-03-01T03:14:50;97951.53;;;-1.55;100.00
55914;BME280;58179;48.776;9.124;2023-03-01T03:17:16;97946.19;;;-1.53;100.00
55914;BME280;58179;48.776;9.124;2023-03-01T03:19:43;97945.69;;;-1.49;100.00
55914;BME280;58179;48.776;9.124;2023-03-01T03:22:11;97945.38;;;-1.46;100.00
55914;BME280;58179;48.776;9.124;2023-03-01T03:24:37;97934.97;;;-1.46;100.00
55914;BME280;58179;48.776;9.124;2023-03-01T03:27:03;97936.63;;;-1.45;100.00
55914;BME280;58179;48.776;9.124;2023-03-01T03:29:29;97940.03;;;-1.44;100.00
55914;BME280;58179;48.776;9.124;2023-03-01T03:31:55;97932.84;;;-1.42;100.00
55914;BME280;58179;48.776;9.124;2023-03-01T03:34:21;97939.53;;;-1.40;100.00
55914;BME280;58179;48.776;9.124;2023-03-01T03:36:53;97938.56;;;-1.39;100.00
55914;BME280;58179;48.776;9.124;2023-03-01T03:39:22;97927.84;;;-1.36;100.00
55914;BME280;58179;48.776;9.124;2023-03-01T03:41:48;97936.44;;;-1.35;100.00
55914;BME280;58179;48.776;9.124;2023-03-01T03:44:14;97940.66;;;-1.34;100.00
55914;BME280;58179;48.776;9.124;2023-03-01T03:46:39;97933.38;;;-1.31;100.00
55914;BME280;58179;48.776;9.124;2023-03-01T03:49:05;97939.22;;;-1.29;100.00
55914;BME280;58179;48.776;9.124;2023-03-01T03:51:31;97943.25;;;-1.26;100.00
55914;BME280;58179;48.776;9.124;2023-03-01T03:53:58;97936.28;;;-1.26;100.00
55914;BME280;58179;48.776;9.124;2023-03-01T03:56:24;97935.00;;;-1.22;100.00
55914;BME280;58179;48.776;9.124;2023-03-01T03:58:51;97928.00;;;-1.21;100.00
55914;BME280;58179;48.776;9.124;2023-03-01T04:01:18;97935.47;;;-1.18;100.00
55914;BME280;58179;48.776;9.124;2023-03-01T04:03:44;97923.28;;;-1.18;100.00
55914;BME280;58179;48.776;9.124;2023-03-01T04:06:13;97924.91;;;-1.17;100.00
55914;BME280;58179;48.776;9.124;2023-03-01T04:08:39;97921.34;;;-1.15;100.00
55914;BME280;58179;48.776;9.124;2023-03-01T04:11:08;97916.16;;;-1.15;100.00
55914;BME280;58179;48.776;9.124;2023-03-01T04:13:54;97912.59;;;-1.14;100.00
55914;BME280;58179;48.776;9.124;2023-03-01T04:16:20;97908.19;;;-1.14;100.00
55914;BME280;58179;48.776;9.124;2023-03-01T04:18:47;97915.66;;;-1.11;100.00
55914;BME280;58179;48.776;9.124;2023-03-01T04:21:14;97918.91;;;-1.09;100.00
55914;BME280;58179;48.776;9.124;2023-03-01T04:23:40;97911.91;;;-1.08;100.00
55914;BME280;58179;48.776;9.124;2023-03-01T04:26:08;97908.34;;;-1.07;100.00
55914;BME280;58179;48.776;9.124;2023-03-01T04:28:36;97902.19;;;-1.06;100.00
55914;BME280;58179;48.776;9.124;2023-03-01T04:31:05;97900.41;;;-1.06;100.00
55914;BME280;58179;48.776;9.124;2023-03-01T04:33:39;97908.00;;;-1.04;100.00
55914;BME280;58179;48.776;9.124;2023-03-01T04:36:07;97904.59;;;-1.05;100.00
55914;BME280;58179;48.776;9.124;2023-03-01T04:38:34;97913.03;;;-1.03;100.00
55914;BME280;58179;48.776;9.124;2023-03-01T04:41:02;97913.84;;;-1.02;100.00
55914;BME280;58179;48.776;9.124;2023-03-01T04:43:30;97911.25;;;-1.02;100.00
55914;BME280;58179;48.776;9.124;2023-03-01T04:46:00;97912.88;;;-1.01;100.00
55914;BME280;58179;48.776;9.124;2023-03-01T04:48:28;97904.94;;;-1.00;100.00
55914;BME280;58179;48.776;9.124;2023-03-01T04:50:54;97907.53;;;-1.00;100.00
55914;BME280;58179;48.776;9.124;2023-03-01T04:53:20;97905.91;;;-1.01;100.00
55914;BME280;58179;48.776;9.124;2023-03-01T04:55:46;97902.50;;;-1.01;100.00
55914;BME280;58179;48.776;9.124;2023-03-01T04:58:11;97904.94;;;-1.00;100.00
55914;BME280;58179;48.776;9.124;2023-03-01T05:00:39;97902.50;;;-1.01;100.00
55914;BME280;58179;48.776;9.124;2023-03-01T05:03:05;97903.47;;;-1.02;100.00
55914;BME280;58179;48.776;9.124;2023-03-01T05:05:33;97908.66;;;-1.02;100.00
55914;BME280;58179;48.776;9.124;2023-03-01T05:08:01;97911.09;;;-1.01;100.00
55914;BME280;58179;48.776;9.124;2023-03-01T05:10:30;97906.22;;;-1.04;100.00
55914;BME280;58179;48.776;9.124;2023-03-01T05:12:57;97904.28;;;-1.02;100.00
55914;BME280;58179;48.776;9.124;2023-03-01T05:15:24;97908.50;;;-1.01;100.00
55914;BME280;58179;48.776;9.124;2023-03-01T05:17:57;97909.31;;;-1.00;100.00
55914;BME280;58179;48.776;9.124;2023-03-01T05:20:25;97899.72;;;-1.00;100.00
55914;BME280;58179;48.776;9.124;2023-03-01T05:22:51;97900.69;;;-1.01;100.00
55914;BME280;58179;48.776;9.124;2023-03-01T05:25:17;97904.13;;;-1.00;100.00
55914;BME280;58179;48.776;9.124;2023-03-01T05:27:44;97890.16;;;-0.99;100.00
55914;BME280;58179;48.776;9.124;2023-03-01T05:30:11;97901.97;;;-0.97;100.00
55914;BME280;58179;48.776;9.124;2023-03-01T05:32:49;97899.38;;;-0.97;100.00
55914;BME280;58179;48.776;9.124;2023-03-01T05:35:17;97904.41;;;-0.95;100.00
55914;BME280;58179;48.776;9.124;2023-03-01T05:37:51;97907.84;;;-0.95;100.00
55914;BME280;58179;48.776;9.124;2023-03-01T05:40:19;97902.63;;;-0.95;100.00
55914;BME280;58179;48.776;9.124;2023-03-01T05:42:46;97903.44;;;-0.94;100.00
55914;BME280;58179;48.776;9.124;2023-03-01T05:45:14;97904.25;;;-0.94;100.00
55914;BME280;58179;48.776;9.124;2023-03-01T05:47:40;97904.25;;;-0.94;100.00
55914;BME280;58179;48.776;9.124;2023-03-01T05:50:12;97906.03;;;-0.94;100.00
55914;BME280;58179;48.776;9.124;2023-03-01T05:52:40;97905.06;;;-0.93;100.00
55914;BME280;58179;48.776;9.124;2023-03-01T05:55:07;97900.84;;;-0.94;100.00
55914;BME280;58179;48.776;9.124;2023-03-01T05:57:33;97894.69;;;-0.93;100.00
55914;BME280;58179;48.776;9.124;2023-03-01T05:59:59;97892.09;;;-0.93;100.00
55914;BME280;58179;48.776;9.124;2023-03-01T06:02:25;97896.31;;;-0.92;100.00
55914;BME280;58179;48.776;9.124;2023-03-01T06:04:51;97885.91;;;-0.92;100.00
55914;BME280;58179;48.776;9.124;2023-03-01T06:07:17;97890.28;;;-0.93;100.00
55914;BME280;58179;48.776;9.124;2023-03-01T06:09:44;97891.72;;;-0.90;100.00
55914;BME280;58179;48.776;9.124;2023-03-01T06:12:10;97886.53;;;-0.90;100.00
55914;BME280;58179;48.776;9.124;2023-03-01T06:14:36;97893.53;;;-0.91;100.00
55914;BME280;58179;48.776;9.124;2023-03-01T06:17:02;97889.13;;;-0.90;100.00
55914;BME280;58179;48.776;9.124;2023-03-01T06:19:28;97887.34;;;-0.90;100.00
55914;BME280;58179;48.776;9.124;2023-03-01T06:21:54;97882.97;;;-0.89;100.00
55914;BME280;58179;48.776;9.124;2023-03-01T06:24:20;97888.16;;;-0.89;100.00
55914;BME280;58179;48.776;9.124;2023-03-01T06:26:47;97889.63;;;-0.87;100.00
55914;BME280;58179;48.776;9.124;2023-03-01T06:29:14;97880.50;;;-0.83;100.00
55914;BME280;58179;48.776;9.124;2023-03-01T06:31:40;97881.97;;;-0.80;100.00
55914;BME280;58179;48.776;9.124;2023-03-01T06:34:06;97887.53;;;-0.83;100.00
55914;BME280;58179;48.776;9.124;2023-03-01T06:36:32;97883.28;;;-0.84;100.00
55914;BME280;58179;48.776;9.124;2023-03-01T06:38:58;97886.72;;;-0.84;100.00
55914;BME280;58179;48.776;9.124;2023-03-01T06:41:24;97884.25;;;-0.85;100.00
55914;BME280;58179;48.776;9.124;2023-03-01T06:43:51;97899.03;;;-0.86;100.00
55914;BME280;58179;48.776;9.124;2023-03-01T06:46:17;97891.09;;;-0.84;100.00
55914;BME280;58179;48.776;9.124;2023-03-01T06:48:42;97887.53;;;-0.83;100.00
55914;BME280;58179;48.776;9.124;2023-03-01T06:51:08;97892.88;;;-0.85;100.00
55914;BME280;58179;48.776;9.124;2023-03-01T06:53:34;97899.50;;;-0.82;100.00
55914;BME280;58179;48.776;9.124;2023-03-01T06:56:00;97897.56;;;-0.80;100.00
55914;BME280;58179;48.776;9.124;2023-03-01T06:58:26;97895.13;;;-0.82;100.00
55914;BME280;58179;48.776;9.124;2023-03-01T07:00:54;97893.19;;;-0.80;100.00
55914;BME280;58179;48.776;9.124;2023-03-01T07:03:19;97890.41;;;-0.78;100.00
55914;BME280;58179;48.776;9.124;2023-03-01T07:05:48;97882.47;;;-0.76;100.00
55914;BME280;58179;48.776;9.124;2023-03-01T07:08:14;97890.06;;;-0.75;100.00
55914;BME280;58179;48.776;9.124;2023-03-01T07:10:40;97882.47;;;-0.76;100.00
55914;BME280;58179;48.776;9.124;2023-03-01T07:13:06;97876.28;;;-0.75;100.00
55914;BME280;58179;48.776;9.124;2023-03-01T07:15:32;97878.06;;;-0.76;100.00
55914;BME280;58179;48.776;9.124;2023-03-01T07:17:59;97878.22;;;-0.77;100.00
55914;BME280;58179;48.776;9.124;2023-03-01T07:20:25;97878.41;;;-0.79;100.00
55914;BME280;58179;48.776;9.124;2023-03-01T07:22:51;97876.59;;;-0.79;100.00
55914;BME280;58179;48.776;9.124;2023-03-01T07:25:17;97876.44;;;-0.77;100.00
55914;BME280;58179;48.776;9.124;2023-03-01T07:27:43;97868.50;;;-0.75;100.00
55914;BME280;58179;48.776;9.124;2023-03-01T07:30:11;97868.13;;;-0.72;100.00
55914;BME280;58179;48.776;9.124;2023-03-01T07:32:36;97862.44;;;-0.68;100.00
55914;BME280;58179;48.776;9.124;2023-03-01T07:35:05;97856.75;;;-0.63;100.00
55914;BME280;58179;48.776;9.124;2023-03-01T07:37:31;97855.41;;;-0.59;100.00
55914;BME280;58179;48.776;9.124;2023-03-01T07:39:57;97857.69;;;-0.56;100.00
55914;BME280;58179;48.776;9.124;2023-03-01T07:42:23;97864.16;;;-0.52;100.00
55914;BME280;58179;48.776;9.124;2023-03-01T07:44:49;97859.28;;;-0.47;100.00
55914;BME280;58179;48.776;9.124;2023-03-01T07:47:15;97855.97;;;-0.41;100.00
55914;BME280;58179;48.776;9.124;2023-03-01T07:49:40;97859.03;;;-0.38;100.00
55914;BME280;58179;48.776;9.124;2023-03-01T07:52:10;97857.56;;;-0.32;100.00
55914;BME280;58179;48.776;9.124;2023-03-01T07:54:36;97846.81;;;-0.29;100.00
55914;BME280;58179;48.776;9.124;2023-03-01T07:57:02;97842.53;;;-0.22;100.00
55914;BME280;58179;48.776;9.124;2023-03-01T07:59:28;97846.44;;;-0.18;100.00
55914;BME280;58179;48.776;9.124;2023-03-01T08:01:56;97843.47;;;-0.15;100.00
55914;BME280;58179;48.776;9.124;2023-03-01T08:04:22;97852.56;;;-0.11;100.00
55914;BME280;58179;48.776;9.124;2023-03-01T08:06:50;97848.47;;;-0.05;100.00
55914;BME280;58179;48.776;9.124;2023-03-01T08:09:17;97833.78;;;0.02;100.00
55914;BME280;58179;48.776;9.124;2023-03-01T08:11:43;97835.88;;;0.07;100.00
55914;BME280;58179;48.776;9.124;2023-03-01T08:14:09;97837.28;;;0.09;100.00
55914;BME280;58179;48.776;9.124;2023-03-01T08:16:36;97847.81;;;0.16;100.00
55914;BME280;58179;48.776;9.124;2023-03-01T08:19:04;97840.94;;;0.23;100.00
55914;BME280;58179;48.776;9.124;2023-03-01T08:21:30;97842.06;;;0.28;100.00
55914;BME280;58179;48.776;9.124;2023-03-01T08:23:56;97837.28;;;0.32;100.00
55914;BME280;58179;48.776;9.124;2023-03-01T08:26:23;97844.59;;;0.36;100.00
55914;BME280;58179;48.776;9.124;2023-03-01T08:28:50;97839.66;;;0.42;100.00
55914;BME280;58179;48.776;9.124;2023-03-01T08:31:19;97840.75;;;0.47;100.00
55914;BME280;58179;48.776;9.124;2023-03-01T08:33:45;97839.88;;;0.55;100.00
55914;BME280;58179;48.776;9.124;2023-03-01T08:36:16;97842.94;;;0.58;100.00
55914;BME280;58179;48.776;9.124;2023-03-01T08:38:43;97835.41;;;0.63;100.00
55914;BME280;58179;48.776;9.124;2023-03-01T08:41:09;97828.66;;;0.69;100.00
55914;BME280;58179;48.776;9.124;2023-03-01T08:43:38;97829.13;;;0.72;100.00
55914;BME280;58179;48.776;9.124;2023-03-01T08:46:04;97828.88;;;0.82;100.00
55914;BME280;58179;48.776;9.124;2023-03-01T08:48:30;97828.16;;;0.88;100.00
55914;BME280;58179;48.776;9.124;2023-03-01T08:50:56;97833.28;;;0.96;100.00
55914;BME280;58179;48.776;9.124;2023-03-01T08:53:22;97828.34;;;1.01;100.00
55914;BME280;58179;48.776;9.124;2023-03-01T08:55:48;97818.81;;;1.08;100.00
55914;BME280;58179;48.776;9.124;2023-03-01T08:58:14;97820.84;;;1.13;100.00
55914;BME280;58179;48.776;9.124;2023-03-01T09:00:41;97816.09;;;1.16;100.00
55914;BME280;58179;48.776;9.124;2023-03-01T09:03:07;97810.81;;;1.25;100.00
55914;BME280;58179;48.776;9.124;2023-03-01T09:05:33;97811.50;;;1.33;100.00
55914;BME280;58179;48.776;9.124;2023-03-01T09:07:59;97810.22;;;1.44;100.00
55914;BME280;58179;48.776;9.124;2023-03-01T09:10:27;97812.91;;;1.50;100.00
55914;BME280;58179;48.776;9.124;2023-03-01T09:12:53;97811.22;;;1.58;100.00
55914;BME280;58179;48.776;9.124;2023-03-01T09:15:19;97804.63;;;1.62;100.00
55914;BME280;58179;48.776;9.124;2023-03-01T09:17:46;97804.50;;;1.70;100.00
55914;BME280;58179;48.776;9.124;2023-03-01T09:20:12;97800.78;;;1.79;100.00
55914;BME280;58179;48.776;9.124;2023-03-01T09:22:38;97792.22;;;1.85;100.00
55914;BME280;58179;48.776;9.124;2023-03-01T09:25:05;97792.28;;;1.91;100.00
55914;BME280;58179;48.776;9.124;2023-03-01T09:27:31;97785.75;;;2.02;100.00
55914;BME280;58179;48.776;9.124;2023-03-01T09:29:57;97785.19;;;2.07;100.00
55914;BME280;58179;48.776;9.124;2023-03-01T09:32:23;97784.19;;;2.08;100.00
55914;BME280;58179;48.776;9.124;2023-03-01T09:34:50;97781.81;;;2.13;100.00
55914;BME280;58179;48.776;9.124;2023-03-01T09:37:33;97786.16;;;2.27;100.00
55914;BME280;58179;48.776;9.124;2023-03-01T09:39:59;97785.44;;;2.33;100.00
55914;BME280;58179;48.776;9.124;2023-03-01T09:42:26;97783.69;;;2.40;100.00
55914;BME280;58179;48.776;9.124;2023-03-01T09:44:57;97787.16;;;2.47;100.00
55914;BME280;58179;48.776;9.124;2023-03-01T09:47:28;97790.97;;;2.51;100.00
55914;BME280;58179;48.776;9.124;2023-03-01T09:50:04;97795.44;;;2.57;100.00
55914;BME280;58179;48.776;9.124;2023-03-01T09:52:39;97783.25;;;2.71;100.00
55914;BME280;58179;48.776;9.124;2023-03-01T09:55:11;97772.94;;;2.91;100.00
55914;BME280;58179;48.776;9.124;2023-03-01T09:57:45;97781.47;;;3.06;100.00
55914;BME280;58179;48.776;9.124;2023-03-01T10:00:31;97771.53;;;3.29;100.00
55914;BME280;58179;48.776;9.124;2023-03-01T10:03:07;97775.84;;;3.63;100.00
55914;BME280;58179;48.776;9.124;2023-03-01T10:05:47;97768.91;;;4.03;100.00
55914;BME280;58179;48.776;9.124;2023-03-01T10:08:38;97766.91;;;4.58;100.00
55914;BME280;58179;48.776;9.124;2023-03-01T10:11:20;97761.09;;;5.20;100.00
55914;BME280;58179;48.776;9.124;2023-03-01T10:13:52;97757.28;;;5.61;100.00
55914;BME280;58179;48.776;9.124;2023-03-01T10:16:28;97751.34;;;6.10;100.00
55914;BME280;58179;48.776;9.124;2023-03-01T10:19:01;97752.38;;;6.58;100.00
55914;BME280;58179;48.776;9.124;2023-03-01T10:21:30;97745.03;;;7.04;100.00
55914;BME280;58179;48.776;9.124;2023-03-01T10:24:08;97745.53;;;7.60;100.00
55914;BME280;58179;48.776;9.124;2023-03-01T10:26:55;97743.88;;;8.07;100.00
55914;BME280;58179;48.776;9.124;2023-03-01T10:29:26;97744.41;;;8.39;100.00
55914;BME280;58179;48.776;9.124;2023-03-01T10:31:55;97736.06;;;8.77;100.00
55914;BME280;58179;48.776;9.124;2023-03-01T10:34:29;97735.84;;;9.30;100.00
55914;BME280;58179;48.776;9.124;2023-03-01T10:37:01;97724.69;;;9.68;100.00
55914;BME280;58179;48.776;9.124;2023-03-01T10:39:34;97714.69;;;10.32;100.00
55914;BME280;58179;48.776;9.124;2023-03-01T10:42:03;97706.56;;;10.94;100.00
55914;BME280;58179;48.776;9.124;2023-03-01T10:44:40;97708.22;;;11.44;100.00
55914;BME280;58179;48.776;9.124;2023-03-01T10:47:14;97713.50;;;11.87;100.00
55914;BME280;58179;48.776;9.124;2023-03-01T10:49:53;97715.94;;;12.26;100.00
55914;BME280;58179;48.776;9.124;2023-03-01T10:52:25;97718.63;;;12.63;100.00
55914;BME280;58179;48.776;9.124;2023-03-01T10:54:55;97723.25;;;12.83;100.00
55914;BME280;58179;48.776;9.124;2023-03-01T10:57:41;97700.00;;;13.05;100.00
55914;BME280;58179;48.776;9.124;2023-03-01T11:00:24;97698.38;;;13.04;100.00
55914;BME280;58179;48.776;9.124;2023-03-01T11:03:08;97700.25;;;13.03;100.00
55914;BME280;58179;48.776;9.124;2023-03-01T11:05:35;97693.88;;;13.09;100.00
55914;BME280;58179;48.776;9.124;2023-03-01T11:08:03;97688.31;;;13.06;100.00
55914;BME280;58179;48.776;9.124;2023-03-01T11:10:31;97675.56;;;13.08;100.00
55914;BME280;58179;48.776;9.124;2023-03-01T11:13:13;97679.38;;;13.27;100.00
55914;BME280;58179;48.776;9.124;2023-03-01T11:15:40;97668.03;;;12.85;100.00
55914;BME280;58179;48.776;9.124;2023-03-01T11:18:20;97664.88;;;12.93;100.00
55914;BME280;58179;48.776;9.124;2023-03-01T11:20:46;97663.44;;;13.22;100.00
55914;BME280;58179;48.776;9.124;2023-03-01T11:23:16;97670.19;;;13.65;100.00
55914;BME280;58179;48.776;9.124;2023-03-01T11:25:46;97668.59;;;14.00;100.00
55914;BME280;58179;48.776;9.124;2023-03-01T11:28:16;97661.44;;;14.46;98.89
55914;BME280;58179;48.776;9.124;2023-03-01T11:30:51;97658.19;;;14.69;95.29
55914;BME280;58179;48.776;9.124;2023-03-01T11:33:37;97651.78;;;14.80;99.40
55914;BME280;58179;48.776;9.124;2023-03-01T11:36:13;97639.41;;;15.04;100.00
55914;BME280;58179;48.776;9.124;2023-03-01T11:38:43;97631.00;;;15.36;100.00
55914;BME280;58179;48.776;9.124;2023-03-01T11:41:15;97631.59;;;15.72;100.00
55914;BME280;58179;48.776;9.124;2023-03-01T11:43:49;97623.44;;;15.93;94.82
55914;BME280;58179;48.776;9.124;2023-03-01T11:46:45;97617.97;;;16.08;91.57
55914;BME280;58179;48.776;9.124;2023-03-01T11:50:04;97632.28;;;15.88;89.38
55914;BME280;58179;48.776;9.124;2023-03-01T11:52:46;97633.44;;;15.77;96.69
55914;BME280;58179;48.776;9.124;2023-03-01T11:55:35;97620.41;;;15.70;99.63
55914;BME280;58179;48.776;9.124;2023-03-01T11:58:23;97615.06;;;15.70;100.00
55914;BME280;58179;48.776;9.124;2023-03-01T12:01:06;97597.19;;;15.71;100.00
55914;BME280;58179;48.776;9.124;2023-03-01T12:03:54;97598.53;;;15.68;100.00
55914;BME280;58179;48.776;9.124;2023-03-01T12:06:42;97592.25;;;15.54;100.00
55914;BME280;58179;48.776;9.124;2023-03-01T12:09:25;97586.13;;;15.43;100.00
55914;BME280;58179;48.776;9.124;2023-03-01T12:12:24;97582.19;;;15.36;100.00
55914;BME280;58179;48.776;9.124;2023-03-01T12:15:11;97572.97;;;15.18;100.00
55914;BME280;58179;48.776;9.124;2023-03-01T12:18:19;97568.38;;;14.80;100.00
55914;BME280;58179;48.776;9.124;2023-03-01T12:21:00;97567.91;;;14.52;100.00
55914;BME280;58179;48.776;9.124;2023-03-01T12:24:03;97561.59;;;14.08;100.00
55914;BME280;58179;48.776;9.124;2023-03-01T12:26:39;97548.88;;;13.74;100.00
55914;BME280;58179;48.776;9.124;2023-03-01T12:32:07;97555.16;;;13.07;100.00
55914;BME280;58179;48.776;9.124;2023-03-01T12:35:02;97537.56;;;12.86;100.00
55914;BME280;58179;48.776;9.124;2023-03-01T12:37:41;97536.50;;;12.77;100.00
55914;BME280;58179;48.776;9.124;2023-03-01T12:40:43;97538.31;;;12.71;100.00
55914;BME280;58179;48.776;9.124;2023-03-01T12:43:28;97523.47;;;12.86;100.00
55914;BME280;58179;48.776;9.124;2023-03-01T12:46:08;97536.03;;;13.05;100.00
55914;BME280;58179;48.776;9.124;2023-03-01T12:48:51;97522.53;;;13.22;100.00
55914;BME280;58179;48.776;9.124;2023-03-01T12:51:26;97518.56;;;13.30;100.00
55914;BME280;58179;48.776;9.124;2023-03-01T12:53:55;97513.50;;;13.38;100.00
55914;BME280;58179;48.776;9.124;2023-03-01T12:56:26;97508.19;;;13.28;100.00
55914;BME280;58179;48.776;9.124;2023-03-01T12:59:01;97504.72;;;13.23;100.00
55914;BME280;58179;48.776;9.124;2023-03-01T13:01:39;97492.47;;;13.16;100.00
55914;BME280;58179;48.776;9.124;2023-03-01T13:04:18;97495.16;;;13.27;100.00
55914;BME280;58179;48.776;9.124;2023-03-01T13:09:44;97491.94;;;13.55;100.00
55914;BME280;58179;48.776;9.124;2023-03-01T13:12:43;97487.16;;;13.67;100.00
55914;BME280;58179;48.776;9.124;2023-03-01T13:15:30;97479.97;;;13.78;100.00